aviador You're here:

KOLM Decoded Metar

OLYMPIA in WA, USA
Report Time2018-05-28 07:54:00
UTC Time2018-05-28 08:04:53
Flight Rules vfr VFR
Wind170° at 04 kt
W.Decomp.*RWY 17: 3.8 kt HW 1.3 kt LCW
RWY 08: 1.3 kt HW 3.8 kt RCW
W.Rank170° ranks 13
Current wind is below 170° avg. (5.8)
Visibility9999 m
Phenomena:N/A
Clouds:N/A
Expected CloudBase > 800 ft AGL from Temp-Dew spread
CeilingNone
Temp10°C (ISA -5)
Dew Point08°C (88% RH)
AAT8.1°C
QNH1023 hPa
Density Alt-554 ft
Elevation190 ft
Report Wrong Elevation
Raw Report
KOLM 280754Z AUTO 17004KT 10SM CLR 10/08 A3022 RMK AO2 SLP234
T01000078 402560050=

Extra information for KOLM:More info

Metar Taf Metar & Taf Last 4 Metars F.Rules Stats Wind Profile Meteogram Temp Stats Airport Information Weather charts Add Link Nearby VenuesMetar ALERT Operation Metar Decoded Social comments

AIRNAV info for KOLM